sensor_id;sensor_type;location;lat;lon;timestamp;temperature;humidity
38464;DHT22;24243;51.956;5.902;2023-06-26T00:01:27;29.10;46.80
38464;DHT22;24243;51.956;5.902;2023-06-26T00:03:57;29.10;46.80
38464;DHT22;24243;51.956;5.902;2023-06-26T00:06:24;29.10;46.90
38464;DHT22;24243;51.956;5.902;2023-06-26T00:08:52;29.10;46.90
38464;DHT22;24243;51.956;5.902;2023-06-26T00:11:19;29.10;46.90
38464;DHT22;24243;51.956;5.902;2023-06-26T00:13:44;29.10;47.00
38464;DHT22;24243;51.956;5.902;2023-06-26T00:16:10;29.10;47.00
38464;DHT22;24243;51.956;5.902;2023-06-26T00:18:36;29.10;47.00
38464;DHT22;24243;51.956;5.902;2023-06-26T00:21:02;29.10;47.00
38464;DHT22;24243;51.956;5.902;2023-06-26T00:23:27;29.00;46.90
38464;DHT22;24243;51.956;5.902;2023-06-26T00:25:53;29.00;47.00
38464;DHT22;24243;51.956;5.902;2023-06-26T00:28:19;29.00;46.90
38464;DHT22;24243;51.956;5.902;2023-06-26T00:30:45;29.00;47.00
38464;DHT22;24243;51.956;5.902;2023-06-26T00:33:11;29.00;47.00
38464;DHT22;24243;51.956;5.902;2023-06-26T00:35:36;29.00;47.00
38464;DHT22;24243;51.956;5.902;2023-06-26T00:38:02;29.00;47.00
38464;DHT22;24243;51.956;5.902;2023-06-26T00:40:28;29.00;47.00
38464;DHT22;24243;51.956;5.902;2023-06-26T00:42:54;29.00;47.00
38464;DHT22;24243;51.956;5.902;2023-06-26T00:45:19;29.00;47.10
38464;DHT22;24243;51.956;5.902;2023-06-26T00:47:45;29.00;47.10
38464;DHT22;24243;51.956;5.902;2023-06-26T00:50:11;29.00;47.10
38464;DHT22;24243;51.956;5.902;2023-06-26T00:52:37;29.00;47.00
38464;DHT22;24243;51.956;5.902;2023-06-26T00:55:04;29.00;47.10
38464;DHT22;24243;51.956;5.902;2023-06-26T00:57:31;29.00;47.10
38464;DHT22;24243;51.956;5.902;2023-06-26T00:59:57;29.00;47.10
38464;DHT22;24243;51.956;5.902;2023-06-26T01:02:22;29.00;47.10
38464;DHT22;24243;51.956;5.902;2023-06-26T01:04:52;29.00;47.10
38464;DHT22;24243;51.956;5.902;2023-06-26T01:07:19;28.90;47.10
38464;DHT22;24243;51.956;5.902;2023-06-26T01:09:47;29.00;47.80
38464;DHT22;24243;51.956;5.902;2023-06-26T01:12:14;28.90;47.20
38464;DHT22;24243;51.956;5.902;2023-06-26T01:14:40;28.90;47.20
38464;DHT22;24243;51.956;5.902;2023-06-26T01:17:06;28.90;47.20
38464;DHT22;24243;51.956;5.902;2023-06-26T01:19:33;28.90;47.30
38464;DHT22;24243;51.956;5.902;2023-06-26T01:22:56;29.00;47.30
38464;DHT22;24243;51.956;5.902;2023-06-26T01:25:08;28.90;47.30
38464;DHT22;24243;51.956;5.902;2023-06-26T01:27:37;28.90;47.30
38464;DHT22;24243;51.956;5.902;2023-06-26T01:30:03;28.90;47.30
38464;DHT22;24243;51.956;5.902;2023-06-26T01:32:31;28.90;47.30
38464;DHT22;24243;51.956;5.902;2023-06-26T01:34:59;28.90;47.40
38464;DHT22;24243;51.956;5.902;2023-06-26T01:37:25;28.90;47.40
38464;DHT22;24243;51.956;5.902;2023-06-26T01:39:50;28.90;47.40
38464;DHT22;24243;51.956;5.902;2023-06-26T01:42:17;28.90;47.40
38464;DHT22;24243;51.956;5.902;2023-06-26T01:44:45;28.90;47.40
38464;DHT22;24243;51.956;5.902;2023-06-26T01:47:14;28.90;47.40
38464;DHT22;24243;51.956;5.902;2023-06-26T01:49:56;28.90;47.40
38464;DHT22;24243;51.956;5.902;2023-06-26T01:53:16;28.90;47.40
38464;DHT22;24243;51.956;5.902;2023-06-26T01:57:56;28.90;47.40
38464;DHT22;24243;51.956;5.902;2023-06-26T02:00:24;28.90;47.40
38464;DHT22;24243;51.956;5.902;2023-06-26T02:02:52;28.90;47.40
38464;DHT22;24243;51.956;5.902;2023-06-26T02:05:17;28.80;47.30
38464;DHT22;24243;51.956;5.902;2023-06-26T02:07:43;28.80;47.90
38464;DHT22;24243;51.956;5.902;2023-06-26T02:10:09;28.80;47.40
38464;DHT22;24243;51.956;5.902;2023-06-26T02:12:36;28.80;47.40
38464;DHT22;24243;51.956;5.902;2023-06-26T02:15:03;28.80;47.30
38464;DHT22;24243;51.956;5.902;2023-06-26T02:17:30;28.80;47.30
38464;DHT22;24243;51.956;5.902;2023-06-26T02:19:55;28.80;47.30
38464;DHT22;24243;51.956;5.902;2023-06-26T02:22:21;28.80;48.00
38464;DHT22;24243;51.956;5.902;2023-06-26T02:24:47;28.80;47.40
38464;DHT22;24243;51.956;5.902;2023-06-26T02:27:13;28.80;47.40
38464;DHT22;24243;51.956;5.902;2023-06-26T02:29:40;28.80;47.40
38464;DHT22;24243;51.956;5.902;2023-06-26T02:32:06;28.80;47.40
38464;DHT22;24243;51.956;5.902;2023-06-26T02:34:32;28.80;47.40
38464;DHT22;24243;51.956;5.902;2023-06-26T02:36:58;28.80;47.40
38464;DHT22;24243;51.956;5.902;2023-06-26T02:39:26;28.80;47.50
38464;DHT22;24243;51.956;5.902;2023-06-26T02:41:52;28.80;47.40
38464;DHT22;24243;51.956;5.902;2023-06-26T02:44:18;28.80;47.40
38464;DHT22;24243;51.956;5.902;2023-06-26T02:46:44;28.80;47.40
38464;DHT22;24243;51.956;5.902;2023-06-26T02:49:10;28.80;47.50
38464;DHT22;24243;51.956;5.902;2023-06-26T02:51:36;28.80;47.50
38464;DHT22;24243;51.956;5.902;2023-06-26T02:54:01;28.80;47.50
38464;DHT22;24243;51.956;5.902;2023-06-26T02:56:27;28.80;47.50
38464;DHT22;24243;51.956;5.902;2023-06-26T02:58:57;28.80;47.50
38464;DHT22;24243;51.956;5.902;2023-06-26T03:01:23;28.80;47.50
38464;DHT22;24243;51.956;5.902;2023-06-26T03:03:49;28.70;47.40
38464;DHT22;24243;51.956;5.902;2023-06-26T03:06:15;28.70;47.40
38464;DHT22;24243;51.956;5.902;2023-06-26T03:08:41;28.70;47.40
38464;DHT22;24243;51.956;5.902;2023-06-26T03:11:08;28.70;47.40
38464;DHT22;24243;51.956;5.902;2023-06-26T03:13:37;28.70;47.40
38464;DHT22;24243;51.956;5.902;2023-06-26T03:16:03;28.70;47.40
38464;DHT22;24243;51.956;5.902;2023-06-26T03:18:29;28.70;47.40
38464;DHT22;24243;51.956;5.902;2023-06-26T03:20:56;28.70;47.50
38464;DHT22;24243;51.956;5.902;2023-06-26T03:23:22;28.70;47.50
38464;DHT22;24243;51.956;5.902;2023-06-26T03:25:49;28.70;47.40
38464;DHT22;24243;51.956;5.902;2023-06-26T03:28:15;28.70;47.40
38464;DHT22;24243;51.956;5.902;2023-06-26T03:30:41;28.70;47.50
38464;DHT22;24243;51.956;5.902;2023-06-26T03:33:07;28.70;47.50
38464;DHT22;24243;51.956;5.902;2023-06-26T03:35:32;28.70;47.50
38464;DHT22;24243;51.956;5.902;2023-06-26T03:37:58;28.70;47.50
38464;DHT22;24243;51.956;5.902;2023-06-26T03:40:24;28.70;47.50
38464;DHT22;24243;51.956;5.902;2023-06-26T03:42:50;28.70;47.50
38464;DHT22;24243;51.956;5.902;2023-06-26T03:45:16;28.70;47.50
38464;DHT22;24243;51.956;5.902;2023-06-26T03:47:41;28.70;47.50
38464;DHT22;24243;51.956;5.902;2023-06-26T03:50:08;28.70;47.50
38464;DHT22;24243;51.956;5.902;2023-06-26T03:52:33;28.70;47.50
38464;DHT22;24243;51.956;5.902;2023-06-26T03:55:00;28.70;47.50
38464;DHT22;24243;51.956;5.902;2023-06-26T03:57:25;28.70;47.60
38464;DHT22;24243;51.956;5.902;2023-06-26T03:59:52;28.70;47.60
38464;DHT22;24243;51.956;5.902;2023-06-26T04:02:18;28.70;47.60
38464;DHT22;24243;51.956;5.902;2023-06-26T04:04:44;28.70;47.60
38464;DHT22;24243;51.956;5.902;2023-06-26T04:07:10;28.70;47.60
38464;DHT22;24243;51.956;5.902;2023-06-26T04:09:35;28.70;47.60
38464;DHT22;24243;51.956;5.902;2023-06-26T04:12:02;28.70;47.60
38464;DHT22;24243;51.956;5.902;2023-06-26T04:14:28;28.70;47.60
38464;DHT22;24243;51.956;5.902;2023-06-26T04:16:53;28.60;47.50
38464;DHT22;24243;51.956;5.902;2023-06-26T04:19:19;28.60;47.60
38464;DHT22;24243;51.956;5.902;2023-06-26T04:21:45;28.70;47.80
38464;DHT22;24243;51.956;5.902;2023-06-26T04:24:11;28.70;47.70
38464;DHT22;24243;51.956;5.902;2023-06-26T04:26:37;28.70;47.70
38464;DHT22;24243;51.956;5.902;2023-06-26T04:29:03;28.70;47.80
38464;DHT22;24243;51.956;5.902;2023-06-26T04:31:29;28.70;47.80
38464;DHT22;24243;51.956;5.902;2023-06-26T04:33:55;28.60;47.80
38464;DHT22;24243;51.956;5.902;2023-06-26T04:36:24;28.60;47.90
38464;DHT22;24243;51.956;5.902;2023-06-26T04:38:57;28.60;48.10
38464;DHT22;24243;51.956;5.902;2023-06-26T04:41:24;28.50;48.20
38464;DHT22;24243;51.956;5.902;2023-06-26T04:43:50;28.40;48.30
38464;DHT22;24243;51.956;5.902;2023-06-26T04:46:17;28.40;48.60
38464;DHT22;24243;51.956;5.902;2023-06-26T04:48:48;28.30;48.60
38464;DHT22;24243;51.956;5.902;2023-06-26T04:51:14;28.20;48.80
38464;DHT22;24243;51.956;5.902;2023-06-26T04:53:39;28.20;48.90
38464;DHT22;24243;51.956;5.902;2023-06-26T04:56:05;28.10;49.00
38464;DHT22;24243;51.956;5.902;2023-06-26T04:58:31;28.10;49.80
38464;DHT22;24243;51.956;5.902;2023-06-26T05:00:57;28.00;49.20
38464;DHT22;24243;51.956;5.902;2023-06-26T05:03:24;28.00;49.40
38464;DHT22;24243;51.956;5.902;2023-06-26T05:05:50;28.00;49.40
38464;DHT22;24243;51.956;5.902;2023-06-26T05:08:24;28.00;49.50
38464;DHT22;24243;51.956;5.902;2023-06-26T05:10:52;27.90;49.50
38464;DHT22;24243;51.956;5.902;2023-06-26T05:13:19;27.90;49.60
38464;DHT22;24243;51.956;5.902;2023-06-26T05:15:49;27.80;49.60
38464;DHT22;24243;51.956;5.902;2023-06-26T05:18:15;27.80;49.60
38464;DHT22;24243;51.956;5.902;2023-06-26T05:20:41;27.80;49.60
38464;DHT22;24243;51.956;5.902;2023-06-26T05:23:07;27.80;49.70
38464;DHT22;24243;51.956;5.902;2023-06-26T05:25:33;27.80;49.70
38464;DHT22;24243;51.956;5.902;2023-06-26T05:28:00;27.80;49.80
38464;DHT22;24243;51.956;5.902;2023-06-26T05:30:27;27.80;49.80
38464;DHT22;24243;51.956;5.902;2023-06-26T05:32:54;27.80;49.80
38464;DHT22;24243;51.956;5.902;2023-06-26T05:35:23;27.80;49.70
38464;DHT22;24243;51.956;5.902;2023-06-26T05:37:50;27.70;49.70
38464;DHT22;24243;51.956;5.902;2023-06-26T05:40:18;27.70;49.60
38464;DHT22;24243;51.956;5.902;2023-06-26T05:42:44;27.70;49.70
38464;DHT22;24243;51.956;5.902;2023-06-26T05:45:10;27.70;49.70
38464;DHT22;24243;51.956;5.902;2023-06-26T05:47:36;27.70;49.70
38464;DHT22;24243;51.956;5.902;2023-06-26T05:50:03;27.70;49.70
38464;DHT22;24243;51.956;5.902;2023-06-26T05:52:29;27.60;49.70
38464;DHT22;24243;51.956;5.902;2023-06-26T05:54:56;27.60;49.60
38464;DHT22;24243;51.956;5.902;2023-06-26T05:57:29;27.70;49.70
38464;DHT22;24243;51.956;5.902;2023-06-26T05:59:55;27.60;49.60
38464;DHT22;24243;51.956;5.902;2023-06-26T06:02:21;27.70;49.70
38464;DHT22;24243;51.956;5.902;2023-06-26T06:04:47;27.60;49.60
38464;DHT22;24243;51.956;5.902;2023-06-26T06:07:13;27.70;49.50
38464;DHT22;24243;51.956;5.902;2023-06-26T06:09:42;27.70;49.40
38464;DHT22;24243;51.956;5.902;2023-06-26T06:12:08;27.70;49.30
38464;DHT22;24243;51.956;5.902;2023-06-26T06:14:35;27.70;49.20
38464;DHT22;24243;51.956;5.902;2023-06-26T06:17:01;27.70;49.00
38464;DHT22;24243;51.956;5.902;2023-06-26T06:19:27;27.80;48.90
38464;DHT22;24243;51.956;5.902;2023-06-26T06:21:52;27.70;48.70
38464;DHT22;24243;51.956;5.902;2023-06-26T06:24:19;27.80;48.60
38464;DHT22;24243;51.956;5.902;2023-06-26T06:26:48;27.80;48.40
38464;DHT22;24243;51.956;5.902;2023-06-26T06:29:13;27.80;48.20
38464;DHT22;24243;51.956;5.902;2023-06-26T06:31:39;27.80;48.20
38464;DHT22;24243;51.956;5.902;2023-06-26T06:34:05;27.80;48.10
38464;DHT22;24243;51.956;5.902;2023-06-26T06:36:31;27.90;48.00
38464;DHT22;24243;51.956;5.902;2023-06-26T06:38:56;27.90;47.90
38464;DHT22;24243;51.956;5.902;2023-06-26T06:41:22;27.90;47.70
38464;DHT22;24243;51.956;5.902;2023-06-26T06:43:48;27.90;47.50
38464;DHT22;24243;51.956;5.902;2023-06-26T06:46:13;28.00;47.40
38464;DHT22;24243;51.956;5.902;2023-06-26T06:48:39;28.00;47.20
38464;DHT22;24243;51.956;5.902;2023-06-26T06:51:05;28.00;47.00
38464;DHT22;24243;51.956;5.902;2023-06-26T06:53:31;28.00;46.90
38464;DHT22;24243;51.956;5.902;2023-06-26T06:55:57;28.00;46.80
38464;DHT22;24243;51.956;5.902;2023-06-26T06:58:23;28.00;46.80
38464;DHT22;24243;51.956;5.902;2023-06-26T07:00:49;28.10;46.70
38464;DHT22;24243;51.956;5.902;2023-06-26T07:03:16;28.10;46.50
38464;DHT22;24243;51.956;5.902;2023-06-26T07:05:42;28.10;46.40
38464;DHT22;24243;51.956;5.902;2023-06-26T07:08:08;28.10;46.20
38464;DHT22;24243;51.956;5.902;2023-06-26T07:10:33;28.20;46.20
38464;DHT22;24243;51.956;5.902;2023-06-26T07:12:59;28.20;46.10
38464;DHT22;24243;51.956;5.902;2023-06-26T07:15:25;28.20;46.10
38464;DHT22;24243;51.956;5.902;2023-06-26T07:17:51;28.20;46.20
38464;DHT22;24243;51.956;5.902;2023-06-26T07:20:17;28.30;46.20
38464;DHT22;24243;51.956;5.902;2023-06-26T07:22:43;28.30;46.20
38464;DHT22;24243;51.956;5.902;2023-06-26T07:25:13;28.30;46.10
38464;DHT22;24243;51.956;5.902;2023-06-26T07:27:40;28.40;46.00
38464;DHT22;24243;51.956;5.902;2023-06-26T07:30:07;28.40;45.90
38464;DHT22;24243;51.956;5.902;2023-06-26T07:32:36;28.40;45.70
38464;DHT22;24243;51.956;5.902;2023-06-26T07:35:01;28.40;45.70
38464;DHT22;24243;51.956;5.902;2023-06-26T07:37:27;28.40;45.60
38464;DHT22;24243;51.956;5.902;2023-06-26T07:39:53;28.50;45.60
38464;DHT22;24243;51.956;5.902;2023-06-26T07:42:19;28.50;45.50
38464;DHT22;24243;51.956;5.902;2023-06-26T07:44:45;28.50;45.50
38464;DHT22;24243;51.956;5.902;2023-06-26T07:47:11;28.50;45.50
38464;DHT22;24243;51.956;5.902;2023-06-26T07:49:37;28.50;45.60
38464;DHT22;24243;51.956;5.902;2023-06-26T07:52:04;28.40;45.50
38464;DHT22;24243;51.956;5.902;2023-06-26T07:54:30;28.40;45.60
38464;DHT22;24243;51.956;5.902;2023-06-26T07:57:02;28.40;45.70
38464;DHT22;24243;51.956;5.902;2023-06-26T07:59:28;28.40;45.70
38464;DHT22;24243;51.956;5.902;2023-06-26T08:01:56;28.30;45.70
38464;DHT22;24243;51.956;5.902;2023-06-26T08:04:25;28.30;45.80
38464;DHT22;24243;51.956;5.902;2023-06-26T08:06:53;28.30;45.90
38464;DHT22;24243;51.956;5.902;2023-06-26T08:09:21;28.30;46.00
38464;DHT22;24243;51.956;5.902;2023-06-26T08:11:47;28.40;46.00
38464;DHT22;24243;51.956;5.902;2023-06-26T08:14:13;28.30;46.10
38464;DHT22;24243;51.956;5.902;2023-06-26T08:16:40;28.40;46.10
38464;DHT22;24243;51.956;5.902;2023-06-26T08:19:06;28.40;46.10
38464;DHT22;24243;51.956;5.902;2023-06-26T08:21:32;28.40;46.00
38464;DHT22;24243;51.956;5.902;2023-06-26T08:23:57;28.40;46.00
38464;DHT22;24243;51.956;5.902;2023-06-26T08:26:23;28.40;45.90
38464;DHT22;24243;51.956;5.902;2023-06-26T08:28:49;28.50;46.00
38464;DHT22;24243;51.956;5.902;2023-06-26T08:31:15;28.50;46.00
38464;DHT22;24243;51.956;5.902;2023-06-26T08:33:41;28.50;45.90
38464;DHT22;24243;51.956;5.902;2023-06-26T08:36:07;28.50;45.90
38464;DHT22;24243;51.956;5.902;2023-06-26T08:38:33;28.50;45.90
38464;DHT22;24243;51.956;5.902;2023-06-26T08:40:59;28.50;45.90
38464;DHT22;24243;51.956;5.902;2023-06-26T08:43:26;28.50;45.90
38464;DHT22;24243;51.956;5.902;2023-06-26T08:45:52;28.50;45.90
38464;DHT22;24243;51.956;5.902;2023-06-26T08:48:20;28.50;45.80
38464;DHT22;24243;51.956;5.902;2023-06-26T08:50:52;28.50;45.70
38464;DHT22;24243;51.956;5.902;2023-06-26T08:56:15;28.60;45.40
38464;DHT22;24243;51.956;5.902;2023-06-26T08:58:43;28.60;45.40
38464;DHT22;24243;51.956;5.902;2023-06-26T09:01:09;28.60;45.20
38464;DHT22;24243;51.956;5.902;2023-06-26T09:03:36;28.70;45.00
38464;DHT22;24243;51.956;5.902;2023-06-26T09:06:02;28.60;44.70
38464;DHT22;24243;51.956;5.902;2023-06-26T09:08:28;28.60;44.70
38464;DHT22;24243;51.956;5.902;2023-06-26T09:10:54;28.70;44.60
38464;DHT22;24243;51.956;5.902;2023-06-26T09:13:21;28.70;44.50
38464;DHT22;24243;51.956;5.902;2023-06-26T09:15:47;28.60;44.20
38464;DHT22;24243;51.956;5.902;2023-06-26T09:18:13;28.70;44.00
38464;DHT22;24243;51.956;5.902;2023-06-26T09:20:42;28.70;44.40
38464;DHT22;24243;51.956;5.902;2023-06-26T09:23:09;28.70;43.60
38464;DHT22;24243;51.956;5.902;2023-06-26T09:25:38;28.70;43.50
38464;DHT22;24243;51.956;5.902;2023-06-26T09:28:05;28.70;43.40
38464;DHT22;24243;51.956;5.902;2023-06-26T09:30:32;28.70;43.30
38464;DHT22;24243;51.956;5.902;2023-06-26T09:33:13;28.80;43.10
38464;DHT22;24243;51.956;5.902;2023-06-26T09:35:39;28.80;42.60
38464;DHT22;24243;51.956;5.902;2023-06-26T09:38:05;28.70;42.40
38464;DHT22;24243;51.956;5.902;2023-06-26T09:40:31;28.70;42.30
38464;DHT22;24243;51.956;5.902;2023-06-26T09:43:08;28.70;42.40
38464;DHT22;24243;51.956;5.902;2023-06-26T09:45:35;28.80;42.30
38464;DHT22;24243;51.956;5.902;2023-06-26T09:48:04;28.80;42.40
38464;DHT22;24243;51.956;5.902;2023-06-26T09:50:32;28.80;42.30
38464;DHT22;24243;51.956;5.902;2023-06-26T09:53:10;28.80;42.30
38464;DHT22;24243;51.956;5.902;2023-06-26T09:55:36;28.80;42.30
38464;DHT22;24243;51.956;5.902;2023-06-26T09:58:03;28.80;42.50
38464;DHT22;24243;51.956;5.902;2023-06-26T10:00:30;28.80;42.50
38464;DHT22;24243;51.956;5.902;2023-06-26T10:02:57;28.80;42.40
38464;DHT22;24243;51.956;5.902;2023-06-26T10:05:23;28.90;42.40
38464;DHT22;24243;51.956;5.902;2023-06-26T10:07:49;28.90;42.30
38464;DHT22;24243;51.956;5.902;2023-06-26T10:10:16;28.90;42.00
38464;DHT22;24243;51.956;5.902;2023-06-26T10:12:42;28.90;41.90
38464;DHT22;24243;51.956;5.902;2023-06-26T10:15:10;28.80;41.80
38464;DHT22;24243;51.956;5.902;2023-06-26T10:17:42;28.90;41.80
38464;DHT22;24243;51.956;5.902;2023-06-26T10:20:09;28.90;41.60
38464;DHT22;24243;51.956;5.902;2023-06-26T10:22:41;28.80;41.60
38464;DHT22;24243;51.956;5.902;2023-06-26T10:25:09;28.80;41.40
38464;DHT22;24243;51.956;5.902;2023-06-26T10:27:40;28.80;41.30
38464;DHT22;24243;51.956;5.902;2023-06-26T10:30:11;28.80;41.20
38464;DHT22;24243;51.956;5.902;2023-06-26T10:32:39;28.80;41.10
38464;DHT22;24243;51.956;5.902;2023-06-26T10:35:06;28.80;41.10
38464;DHT22;24243;51.956;5.902;2023-06-26T10:37:49;28.80;40.90
38464;DHT22;24243;51.956;5.902;2023-06-26T10:40:23;28.80;40.80
38464;DHT22;24243;51.956;5.902;2023-06-26T10:42:50;28.80;40.80
38464;DHT22;24243;51.956;5.902;2023-06-26T10:45:28;28.80;40.90
38464;DHT22;24243;51.956;5.902;2023-06-26T10:47:54;28.70;40.70
38464;DHT22;24243;51.956;5.902;2023-06-26T10:50:29;28.70;40.70
38464;DHT22;24243;51.956;5.902;2023-06-26T10:55:32;28.70;40.30
38464;DHT22;24243;51.956;5.902;2023-06-26T10:57:58;28.70;40.20
38464;DHT22;24243;51.956;5.902;2023-06-26T11:00:24;28.70;40.00
38464;DHT22;24243;51.956;5.902;2023-06-26T11:02:52;28.70;39.80
38464;DHT22;24243;51.956;5.902;2023-06-26T11:05:29;28.70;39.50
38464;DHT22;24243;51.956;5.902;2023-06-26T11:08:07;28.70;39.20
38464;DHT22;24243;51.956;5.902;2023-06-26T11:10:54;28.60;39.00
38464;DHT22;24243;51.956;5.902;2023-06-26T11:13:21;28.60;39.50
38464;DHT22;24243;51.956;5.902;2023-06-26T11:15:48;28.60;38.90
38464;DHT22;24243;51.956;5.902;2023-06-26T11:18:15;28.50;38.70
38464;DHT22;24243;51.956;5.902;2023-06-26T11:20:41;28.50;38.70
38464;DHT22;24243;51.956;5.902;2023-06-26T11:23:08;28.50;38.70
38464;DHT22;24243;51.956;5.902;2023-06-26T11:25:38;28.50;38.70
38464;DHT22;24243;51.956;5.902;2023-06-26T11:28:05;28.50;38.80
38464;DHT22;24243;51.956;5.902;2023-06-26T11:30:31;28.50;39.00
38464;DHT22;24243;51.956;5.902;2023-06-26T11:33:07;28.50;39.00
38464;DHT22;24243;51.956;5.902;2023-06-26T11:35:36;28.50;38.50
38464;DHT22;24243;51.956;5.902;2023-06-26T11:38:03;28.50;38.50
38464;DHT22;24243;51.956;5.902;2023-06-26T11:40:36;28.50;38.30
38464;DHT22;24243;51.956;5.902;2023-06-26T11:43:03;28.50;38.20
38464;DHT22;24243;51.956;5.902;2023-06-26T11:45:30;28.40;38.20
38464;DHT22;24243;51.956;5.902;2023-06-26T11:47:57;28.40;38.10
38464;DHT22;24243;51.956;5.902;2023-06-26T11:50:23;28.40;38.10
38464;DHT22;24243;51.956;5.902;2023-06-26T11:52:56;28.40;38.10
38464;DHT22;24243;51.956;5.902;2023-06-26T11:55:23;28.40;38.20
38464;DHT22;24243;51.956;5.902;2023-06-26T11:57:58;28.40;38.20
38464;DHT22;24243;51.956;5.902;2023-06-26T12:00:24;28.40;38.20
38464;DHT22;24243;51.956;5.902;2023-06-26T12:02:49;28.40;38.30
38464;DHT22;24243;51.956;5.902;2023-06-26T12:05:17;28.40;38.30
38464;DHT22;24243;51.956;5.902;2023-06-26T12:07:44;28.40;38.30
38464;DHT22;24243;51.956;5.902;2023-06-26T12:10:11;28.40;38.30
38464;DHT22;24243;51.956;5.902;2023-06-26T12:12:38;28.40;38.40
38464;DHT22;24243;51.956;5.902;2023-06-26T12:15:08;28.40;38.40
38464;DHT22;24243;51.956;5.902;2023-06-26T12:17:39;28.40;38.40
38464;DHT22;24243;51.956;5.902;2023-06-26T12:20:05;28.40;38.20
38464;DHT22;24243;51.956;5.902;2023-06-26T12:22:35;28.40;38.10
38464;DHT22;24243;51.956;5.902;2023-06-26T12:25:01;28.40;38.00
38464;DHT22;24243;51.956;5.902;2023-06-26T12:27:27;28.40;38.10
38464;DHT22;24243;51.956;5.902;2023-06-26T12:29:54;28.40;38.00
38464;DHT22;24243;51.956;5.902;2023-06-26T12:32:24;28.40;38.10
38464;DHT22;24243;51.956;5.902;2023-06-26T12:34:51;28.40;38.70
38464;DHT22;24243;51.956;5.902;2023-06-26T12:37:18;28.40;38.00
38464;DHT22;24243;51.956;5.902;2023-06-26T12:39:52;28.40;38.00
38464;DHT22;24243;51.956;5.902;2023-06-26T12:42:22;28.40;38.00
38464;DHT22;24243;51.956;5.902;2023-06-26T12:44:49;28.50;38.00
38464;DHT22;24243;51.956;5.902;2023-06-26T12:47:23;28.40;37.90
38464;DHT22;24243;51.956;5.902;2023-06-26T12:49:51;28.40;37.80
38464;DHT22;24243;51.956;5.902;2023-06-26T12:52:17;28.40;37.80
38464;DHT22;24243;51.956;5.902;2023-06-26T12:54:49;28.40;37.60
38464;DHT22;24243;51.956;5.902;2023-06-26T12:57:16;28.40;37.50
38464;DHT22;24243;51.956;5.902;2023-06-26T12:59:42;28.40;37.40
38464;DHT22;24243;51.956;5.902;2023-06-26T13:02:08;28.40;37.40
38464;DHT22;24243;51.956;5.902;2023-06-26T13:04:34;28.40;37.20
38464;DHT22;24243;51.956;5.902;2023-06-26T13:07:01;28.40;37.20
38464;DHT22;24243;51.956;5.902;2023-06-26T13:09:31;28.40;37.10
38464;DHT22;24243;51.956;5.902;2023-06-26T13:11:59;28.30;36.80
38464;DHT22;24243;51.956;5.902;2023-06-26T13:14:25;28.30;36.80
38464;DHT22;24243;51.956;5.902;2023-06-26T13:16:51;28.30;36.70
38464;DHT22;24243;51.956;5.902;2023-06-26T13:19:17;28.30;36.80
38464;DHT22;24243;51.956;5.902;2023-06-26T13:21:43;28.30;36.80
38464;DHT22;24243;51.956;5.902;2023-06-26T13:24:09;28.30;36.80
38464;DHT22;24243;51.956;5.902;2023-06-26T13:26:34;28.30;36.90
38464;DHT22;24243;51.956;5.902;2023-06-26T13:29:00;28.20;36.80
38464;DHT22;24243;51.956;5.902;2023-06-26T13:31:26;28.30;36.80
38464;DHT22;24243;51.956;5.902;2023-06-26T13:33:53;28.20;36.70
38464;DHT22;24243;51.956;5.902;2023-06-26T13:36:24;28.20;36.70
38464;DHT22;24243;51.956;5.902;2023-06-26T13:38:50;28.20;36.70
38464;DHT22;24243;51.956;5.902;2023-06-26T13:41:24;28.20;36.60
38464;DHT22;24243;51.956;5.902;2023-06-26T13:43:50;28.20;36.60
38464;DHT22;24243;51.956;5.902;2023-06-26T13:46:17;28.20;36.60
38464;DHT22;24243;51.956;5.902;2023-06-26T13:48:46;28.20;36.60
38464;DHT22;24243;51.956;5.902;2023-06-26T13:51:12;28.20;36.60
38464;DHT22;24243;51.956;5.902;2023-06-26T13:53:38;28.20;36.40
38464;DHT22;24243;51.956;5.902;2023-06-26T13:56:04;28.10;36.20
38464;DHT22;24243;51.956;5.902;2023-06-26T13:58:30;28.20;36.20
38464;DHT22;24243;51.956;5.902;2023-06-26T14:00:58;28.10;36.20
38464;DHT22;24243;51.956;5.902;2023-06-26T14:03:26;28.10;36.20
38464;DHT22;24243;51.956;5.902;2023-06-26T14:05:52;28.10;36.10
38464;DHT22;24243;51.956;5.902;2023-06-26T14:08:18;28.10;36.10
38464;DHT22;24243;51.956;5.902;2023-06-26T14:10:43;28.10;36.00
38464;DHT22;24243;51.956;5.902;2023-06-26T14:13:09;28.10;36.10
38464;DHT22;24243;51.956;5.902;2023-06-26T14:15:37;28.10;36.10
38464;DHT22;24243;51.956;5.902;2023-06-26T14:18:04;28.10;36.10
38464;DHT22;24243;51.956;5.902;2023-06-26T14:20:30;28.00;36.10
38464;DHT22;24243;51.956;5.902;2023-06-26T14:22:58;28.00;36.00
38464;DHT22;24243;51.956;5.902;2023-06-26T14:25:25;28.00;36.00
38464;DHT22;24243;51.956;5.902;2023-06-26T14:27:54;28.00;36.00
38464;DHT22;24243;51.956;5.902;2023-06-26T14:30:19;28.00;36.80
38464;DHT22;24243;51.956;5.902;2023-06-26T14:32:45;27.90;36.50
38464;DHT22;24243;51.956;5.902;2023-06-26T14:35:11;27.90;36.70
38464;DHT22;24243;51.956;5.902;2023-06-26T14:37:36;27.90;36.80
38464;DHT22;24243;51.956;5.902;2023-06-26T14:40:05;27.90;37.00
38464;DHT22;24243;51.956;5.902;2023-06-26T14:42:31;27.90;37.10
38464;DHT22;24243;51.956;5.902;2023-06-26T14:44:57;27.90;37.20
38464;DHT22;24243;51.956;5.902;2023-06-26T14:47:22;27.90;37.30
38464;DHT22;24243;51.956;5.902;2023-06-26T14:49:48;27.90;37.50
38464;DHT22;24243;51.956;5.902;2023-06-26T14:52:14;27.90;37.50
38464;DHT22;24243;51.956;5.902;2023-06-26T14:54:39;27.90;37.60
38464;DHT22;24243;51.956;5.902;2023-06-26T14:57:08;27.90;37.70
38464;DHT22;24243;51.956;5.902;2023-06-26T14:59:34;27.90;37.70
38464;DHT22;24243;51.956;5.902;2023-06-26T15:01:59;27.90;37.70
38464;DHT22;24243;51.956;5.902;2023-06-26T15:04:25;27.90;37.80
38464;DHT22;24243;51.956;5.902;2023-06-26T15:06:51;27.90;37.80
38464;DHT22;24243;51.956;5.902;2023-06-26T15:09:17;27.90;37.90
38464;DHT22;24243;51.956;5.902;2023-06-26T15:11:42;27.90;37.90
38464;DHT22;24243;51.956;5.902;2023-06-26T15:14:08;27.90;37.90
38464;DHT22;24243;51.956;5.902;2023-06-26T15:16:34;27.90;38.00
38464;DHT22;24243;51.956;5.902;2023-06-26T15:18:59;27.90;38.00
38464;DHT22;24243;51.956;5.902;2023-06-26T15:21:25;27.80;38.00
38464;DHT22;24243;51.956;5.902;2023-06-26T15:23:51;27.80;38.00
38464;DHT22;24243;51.956;5.902;2023-06-26T15:26:17;27.80;38.10
38464;DHT22;24243;51.956;5.902;2023-06-26T15:28:42;27.80;38.10
38464;DHT22;24243;51.956;5.902;2023-06-26T15:31:08;27.80;38.10
38464;DHT22;24243;51.956;5.902;2023-06-26T15:33:33;27.80;38.10
38464;DHT22;24243;51.956;5.902;2023-06-26T15:35:59;27.80;38.20
38464;DHT22;24243;51.956;5.902;2023-06-26T15:38:28;27.80;38.20